createdAt,value
2023-11-20T00:00:15.059Z,26.10
2023-11-20T00:02:44.864Z,22.33
2023-11-20T00:05:14.009Z,19.02
2023-11-20T00:07:43.235Z,21.33
2023-11-20T00:10:12.311Z,20.73
2023-11-20T00:12:41.021Z,16.25
2023-11-20T00:15:12.358Z,22.98
2023-11-20T00:17:41.031Z,18.45
2023-11-20T00:20:10.372Z,17.38
2023-11-20T00:22:39.938Z,16.67
2023-11-20T00:25:09.088Z,17.65
2023-11-20T00:27:37.953Z,16.90
2023-11-20T00:30:08.858Z,16.05
2023-11-20T00:32:38.812Z,12.98
2023-11-20T00:37:35.677Z,18.77
2023-11-20T00:40:07.091Z,15.05
2023-11-20T00:42:35.719Z,11.68
2023-11-20T00:45:04.555Z,15.88
2023-11-20T00:47:34.635Z,26.73
2023-11-20T00:50:04.777Z,13.80
2023-11-20T00:52:35.845Z,13.85
2023-11-20T00:55:11.102Z,14.95
2023-11-20T00:57:39.965Z,15.30
2023-11-20T01:00:10.169Z,18.27
2023-11-20T01:02:39.153Z,21.20
2023-11-20T01:05:09.970Z,10.38
2023-11-20T01:07:38.592Z,22.70
2023-11-20T01:10:08.608Z,15.18
2023-11-20T01:12:37.598Z,18.73
2023-11-20T01:15:08.817Z,15.32
2023-11-20T01:17:37.908Z,24.00
2023-11-20T01:20:11.769Z,21.00
2023-11-20T01:22:40.975Z,16.83
2023-11-20T01:25:10.308Z,16.45
2023-11-20T01:27:38.977Z,20.50
2023-11-20T01:30:10.798Z,15.50
2023-11-20T01:32:39.913Z,21.30
2023-11-20T01:35:10.855Z,13.05
2023-11-20T01:37:39.681Z,12.82
2023-11-20T01:40:09.542Z,20.67
2023-11-20T01:42:39.801Z,15.15
2023-11-20T01:45:09.813Z,17.90
2023-11-20T01:47:38.965Z,17.77
2023-11-20T01:50:13.272Z,14.25
2023-11-20T01:52:43.916Z,16.67
2023-11-20T01:55:14.439Z,17.13
2023-11-20T01:57:47.049Z,17.27
2023-11-20T02:00:18.138Z,13.60
2023-11-20T02:02:47.153Z,14.05
2023-11-20T02:05:17.282Z,13.13
2023-11-20T02:07:45.833Z,14.27
2023-11-20T02:10:14.949Z,12.23
2023-11-20T02:12:44.275Z,17.92
2023-11-20T02:15:13.759Z,14.77
2023-11-20T02:17:42.548Z,14.48
2023-11-20T02:20:12.004Z,19.50
2023-11-20T02:22:41.992Z,11.48
2023-11-20T02:25:10.850Z,13.55
2023-11-20T02:27:51.127Z,14.07
2023-11-20T02:30:21.181Z,14.15
2023-11-20T02:32:50.574Z,15.45
2023-11-20T02:35:19.329Z,14.60
2023-11-20T02:37:48.466Z,12.98
2023-11-20T02:40:17.316Z,11.48
2023-11-20T02:42:46.969Z,10.85
2023-11-20T02:45:15.545Z,11.13
2023-11-20T02:47:45.553Z,13.05
2023-11-20T02:50:14.705Z,9.25
2023-11-20T02:52:43.852Z,11.23
2023-11-20T02:55:12.857Z,9.48
2023-11-20T02:57:41.465Z,10.45
2023-11-20T03:00:13.386Z,11.77
2023-11-20T03:02:42.219Z,11.88
2023-11-20T03:05:12.364Z,10.75
2023-11-20T03:07:40.907Z,14.77
2023-11-20T03:10:10.303Z,10.55
2023-11-20T03:12:39.610Z,10.90
2023-11-20T03:15:09.433Z,15.45
2023-11-20T03:17:38.235Z,14.10
2023-11-20T03:20:07.729Z,16.80
2023-11-20T03:22:38.564Z,11.93
2023-11-20T03:25:08.417Z,9.30
2023-11-20T03:27:37.532Z,8.30
2023-11-20T03:30:07.134Z,14.57
2023-11-20T03:32:36.839Z,9.05
2023-11-20T03:37:35.810Z,13.20
2023-11-20T03:40:06.787Z,10.38
2023-11-20T03:42:35.895Z,10.43
2023-11-20T03:45:04.673Z,11.27
2023-11-20T03:47:34.355Z,11.88
2023-11-20T03:50:05.085Z,14.23
2023-11-20T03:52:34.437Z,11.65
2023-11-20T03:55:03.096Z,12.55
2023-11-20T03:57:34.425Z,15.52
2023-11-20T04:00:03.224Z,12.70
2023-11-20T04:02:34.325Z,12.30
2023-11-20T04:05:02.924Z,12.27
2023-11-20T04:07:31.667Z,14.85
2023-11-20T04:10:00.296Z,15.13
2023-11-20T04:12:29.368Z,12.35
2023-11-20T04:14:59.352Z,12.13
2023-11-20T04:17:27.973Z,11.73
2023-11-20T04:19:56.914Z,13.77
2023-11-20T04:22:25.740Z,14.43
2023-11-20T04:24:54.364Z,11.98
2023-11-20T04:27:24.363Z,11.98
2023-11-20T04:29:52.871Z,11.40
2023-11-20T04:32:24.998Z,13.27
2023-11-20T04:34:53.768Z,11.98
2023-11-20T04:37:22.344Z,19.38
2023-11-20T04:39:53.679Z,12.75
2023-11-20T04:42:22.269Z,18.38
2023-11-20T04:44:51.132Z,12.35
2023-11-20T04:47:19.750Z,13.60
2023-11-20T04:49:49.737Z,16.55
2023-11-20T04:52:18.374Z,16.95
2023-11-20T04:54:48.449Z,13.07
2023-11-20T04:57:17.740Z,12.10
2023-11-20T04:59:46.303Z,11.07
2023-11-20T05:02:14.862Z,10.55
2023-11-20T05:04:43.515Z,14.43
2023-11-20T05:07:13.500Z,13.13
2023-11-20T05:09:42.040Z,12.48
2023-11-20T05:12:10.667Z,13.50
2023-11-20T05:14:39.254Z,11.35
2023-11-20T05:17:07.910Z,7.72
2023-11-20T05:19:36.513Z,10.27
2023-11-20T05:22:05.105Z,11.90
2023-11-20T05:24:35.828Z,8.32
2023-11-20T05:27:04.803Z,8.13
2023-11-20T05:29:34.289Z,9.05
2023-11-20T05:32:02.842Z,12.18
2023-11-20T05:34:31.532Z,9.70
2023-11-20T05:37:00.157Z,7.10
2023-11-20T05:39:28.908Z,7.75
2023-11-20T05:41:59.215Z,9.20
2023-11-20T05:44:27.853Z,11.30
2023-11-20T05:46:56.379Z,15.00
2023-11-20T05:49:25.601Z,10.02
2023-11-20T05:51:54.774Z,10.38
2023-11-20T05:54:23.303Z,7.30
2023-11-20T05:56:51.930Z,9.77
2023-11-20T05:59:21.960Z,10.57
2023-11-20T06:04:19.082Z,10.07
2023-11-20T06:06:47.775Z,10.95
2023-11-20T06:09:16.730Z,16.15
2023-11-20T06:11:49.471Z,6.40
2023-11-20T06:14:18.503Z,18.75
2023-11-20T06:16:50.337Z,10.27
2023-11-20T06:19:20.139Z,9.50
2023-11-20T06:21:49.184Z,9.48
2023-11-20T06:24:18.778Z,9.70
2023-11-20T06:26:47.361Z,8.38
2023-11-20T06:29:16.283Z,8.23
2023-11-20T06:31:44.977Z,9.02
2023-11-20T06:34:15.021Z,10.35
2023-11-20T06:36:43.742Z,9.38
2023-11-20T06:39:12.898Z,10.13
2023-11-20T06:41:43.754Z,8.20
2023-11-20T06:44:12.365Z,9.68
2023-11-20T06:46:41.079Z,8.40
2023-11-20T06:49:09.725Z,12.60
2023-11-20T06:51:39.833Z,9.93
2023-11-20T06:54:08.502Z,9.05
2023-11-20T06:56:37.216Z,13.23
2023-11-20T06:59:05.992Z,14.27
2023-11-20T07:01:34.564Z,9.68
2023-11-20T07:04:03.354Z,11.07
2023-11-20T07:06:31.957Z,9.75
2023-11-20T07:09:01.931Z,11.57
2023-11-20T07:11:31.056Z,10.27
2023-11-20T07:13:59.718Z,9.90
2023-11-20T07:16:28.343Z,13.05
2023-11-20T07:18:59.503Z,9.70
2023-11-20T07:21:28.317Z,9.27
2023-11-20T07:23:56.981Z,11.13
2023-11-20T07:26:27.801Z,12.93
2023-11-20T07:28:57.654Z,14.23
2023-11-20T07:33:58.294Z,8.75
2023-11-20T07:36:27.044Z,11.90
2023-11-20T07:38:55.586Z,10.10
2023-11-20T07:41:24.175Z,12.35
2023-11-20T07:43:54.180Z,10.60
2023-11-20T07:46:22.825Z,11.63
2023-11-20T07:48:53.600Z,9.68
2023-11-20T07:51:22.831Z,10.07
2023-11-20T07:53:51.388Z,10.25
2023-11-20T07:56:20.334Z,14.05
2023-11-20T07:58:48.881Z,10.30
2023-11-20T08:01:18.859Z,11.02
2023-11-20T08:03:47.528Z,11.93
2023-11-20T08:06:20.584Z,8.85
2023-11-20T08:08:50.933Z,9.32
2023-11-20T08:11:19.862Z,7.47
2023-11-20T08:13:48.847Z,7.18
2023-11-20T08:16:19.041Z,12.30
2023-11-20T08:18:47.716Z,7.47
2023-11-20T08:21:16.303Z,9.75
2023-11-20T08:23:45.438Z,11.80
2023-11-20T08:26:14.676Z,7.85
2023-11-20T08:28:43.337Z,9.02
2023-11-20T08:31:12.128Z,11.00
2023-11-20T08:33:42.460Z,9.70
2023-11-20T08:36:11.511Z,12.48
2023-11-20T08:38:40.079Z,12.82
2023-11-20T08:41:09.608Z,9.40
2023-11-20T08:43:38.205Z,8.88
2023-11-20T08:46:13.159Z,11.20
2023-11-20T08:48:45.918Z,10.70
2023-11-20T08:51:14.514Z,11.20
2023-11-20T08:53:43.035Z,11.73
2023-11-20T08:56:12.572Z,10.95
2023-11-20T08:58:41.188Z,7.28
2023-11-20T09:01:09.824Z,11.35
2023-11-20T09:03:38.488Z,11.90
2023-11-20T09:06:08.958Z,13.80
2023-11-20T09:08:37.483Z,13.30
2023-11-20T09:11:09.379Z,9.55
2023-11-20T09:13:38.034Z,10.55
2023-11-20T09:16:07.559Z,8.43
2023-11-20T09:18:36.177Z,10.88
2023-11-20T09:21:05.904Z,8.60
2023-11-20T09:23:36.015Z,9.80
2023-11-20T09:26:05.681Z,12.57
2023-11-20T09:28:34.733Z,11.50
2023-11-20T09:31:04.914Z,9.30
2023-11-20T09:33:33.826Z,12.15
2023-11-20T09:36:02.912Z,9.75
2023-11-20T09:38:31.483Z,11.55
2023-11-20T09:41:02.433Z,8.20
2023-11-20T09:43:31.977Z,8.93
2023-11-20T09:46:02.665Z,8.85
2023-11-20T09:48:34.794Z,12.35
2023-11-20T09:51:11.016Z,9.60
2023-11-20T09:53:43.739Z,8.27
2023-11-20T09:56:15.032Z,9.80
2023-11-20T09:58:44.375Z,9.23
2023-11-20T10:01:15.719Z,11.68
2023-11-20T10:03:46.260Z,16.85
2023-11-20T10:06:17.817Z,11.25
2023-11-20T10:08:47.628Z,8.82
2023-11-20T10:11:23.259Z,9.23
2023-11-20T10:13:52.115Z,9.38
2023-11-20T10:16:24.479Z,8.82
2023-11-20T10:18:54.183Z,9.20
2023-11-20T10:21:22.892Z,13.15
2023-11-20T10:23:55.201Z,11.30
2023-11-20T10:26:26.123Z,10.00
2023-11-20T10:28:57.382Z,7.57
2023-11-20T10:31:26.666Z,8.98
2023-11-20T10:34:08.393Z,9.10
2023-11-20T10:36:37.728Z,8.63
2023-11-20T10:39:09.235Z,8.80
2023-11-20T10:41:44.756Z,11.15
2023-11-20T10:44:14.069Z,10.32
2023-11-20T10:46:43.280Z,8.07
2023-11-20T10:49:15.537Z,12.25
2023-11-20T10:51:54.742Z,7.32
2023-11-20T10:54:30.107Z,9.27
2023-11-20T10:57:05.089Z,8.95
2023-11-20T10:59:36.561Z,7.45
2023-11-20T11:02:10.053Z,8.25
2023-11-20T11:04:41.241Z,7.97
2023-11-20T11:07:14.237Z,7.65
2023-11-20T11:09:45.749Z,10.23
2023-11-20T11:12:17.937Z,6.45
2023-11-20T11:14:46.574Z,17.90
2023-11-20T11:17:20.007Z,8.48
2023-11-20T11:19:56.600Z,9.50
2023-11-20T11:22:33.224Z,10.25
2023-11-20T11:25:11.820Z,10.15
2023-11-20T11:27:51.967Z,9.25
2023-11-20T11:30:23.532Z,11.50
2023-11-20T11:33:10.345Z,7.63
2023-11-20T11:36:10.039Z,9.57
2023-11-20T11:38:46.975Z,10.40
2023-11-20T11:41:33.448Z,11.30
2023-11-20T11:44:09.002Z,8.65
2023-11-20T11:46:37.849Z,9.00
2023-11-20T11:49:21.296Z,10.52
2023-11-20T11:51:51.164Z,8.02
2023-11-20T11:54:20.836Z,8.07
2023-11-20T11:57:06.074Z,8.93
2023-11-20T11:59:41.204Z,9.60
2023-11-20T12:02:10.917Z,13.10
2023-11-20T12:05:02.437Z,8.63
2023-11-20T12:07:50.917Z,13.80
2023-11-20T12:10:40.069Z,13.27
2023-11-20T12:13:11.199Z,10.68
2023-11-20T12:15:44.240Z,11.52
2023-11-20T12:18:17.729Z,9.93
2023-11-20T12:21:06.405Z,6.70
2023-11-20T12:23:36.146Z,8.05
2023-11-20T12:28:35.392Z,8.38
2023-11-20T12:31:07.129Z,9.77
2023-11-20T12:33:36.649Z,10.30
2023-11-20T12:36:06.234Z,8.35
2023-11-20T12:38:36.431Z,8.15
2023-11-20T12:41:06.600Z,7.90
2023-11-20T12:43:37.133Z,11.02
2023-11-20T12:46:09.304Z,8.75
2023-11-20T12:48:41.456Z,9.77
2023-11-20T12:51:10.899Z,10.13
2023-11-20T12:53:40.131Z,8.85
2023-11-20T12:56:11.087Z,9.85
2023-11-20T12:58:42.832Z,7.57
2023-11-20T13:01:13.694Z,9.85
2023-11-20T13:03:42.503Z,9.18
2023-11-20T13:06:12.256Z,8.48
2023-11-20T13:08:41.638Z,9.85
2023-11-20T13:11:13.251Z,9.70
2023-11-20T13:13:44.233Z,7.82
2023-11-20T13:16:20.888Z,12.52
2023-11-20T13:18:51.127Z,7.20
2023-11-20T13:21:28.401Z,12.30
2023-11-20T13:24:02.066Z,8.98
2023-11-20T13:26:31.464Z,8.50
2023-11-20T13:29:00.851Z,8.30
2023-11-20T13:31:38.490Z,8.15
2023-11-20T13:34:08.904Z,12.60
2023-11-20T13:36:39.882Z,9.05
2023-11-20T13:39:11.878Z,8.75
2023-11-20T13:41:40.608Z,7.70
2023-11-20T13:44:10.709Z,7.68
2023-11-20T13:46:43.690Z,10.45
2023-11-20T13:49:15.620Z,8.48
2023-11-20T13:51:45.136Z,11.73
2023-11-20T13:54:13.738Z,11.55
2023-11-20T13:56:42.309Z,7.97
2023-11-20T13:59:11.255Z,7.32
2023-11-20T14:01:41.577Z,7.22
2023-11-20T14:04:12.414Z,7.97
2023-11-20T14:06:42.444Z,5.45
2023-11-20T14:11:39.857Z,6.95
2023-11-20T14:14:08.549Z,7.88
2023-11-20T14:16:37.249Z,7.82
2023-11-20T14:19:11.031Z,8.15
2023-11-20T14:21:39.970Z,8.80
2023-11-20T14:24:10.240Z,7.63
2023-11-20T14:26:39.218Z,5.50
2023-11-20T14:29:07.799Z,6.68
2023-11-20T14:31:36.800Z,8.50
2023-11-20T14:34:07.582Z,8.07
2023-11-20T14:36:36.206Z,8.70
2023-11-20T14:39:05.192Z,7.20
2023-11-20T14:41:33.861Z,6.63
2023-11-20T14:44:04.575Z,7.55
2023-11-20T14:46:33.593Z,11.05
2023-11-20T14:49:02.375Z,5.88
2023-11-20T14:51:32.453Z,8.38
2023-11-20T14:54:02.853Z,9.15
2023-11-20T14:56:31.479Z,13.52
2023-11-20T14:59:00.037Z,11.40
2023-11-20T15:01:28.956Z,6.55
2023-11-20T15:03:57.717Z,8.32
2023-11-20T15:06:26.410Z,8.65
2023-11-20T15:08:56.436Z,8.52
2023-11-20T15:11:25.040Z,5.53
2023-11-20T15:13:54.438Z,5.90
2023-11-20T15:16:23.244Z,5.97
2023-11-20T15:18:55.196Z,5.05
2023-11-20T15:21:23.926Z,8.23
2023-11-20T15:23:52.422Z,7.45
2023-11-20T15:26:22.376Z,5.20
2023-11-20T15:31:19.194Z,8.23
2023-11-20T15:33:47.868Z,7.47
2023-11-20T15:36:16.521Z,7.05
2023-11-20T15:38:45.639Z,6.03
2023-11-20T15:41:14.414Z,6.13
2023-11-20T15:43:44.543Z,6.65
2023-11-20T15:46:16.452Z,5.55
2023-11-20T15:48:45.691Z,7.70
2023-11-20T15:51:14.648Z,6.25
2023-11-20T15:53:43.211Z,6.10
2023-11-20T15:56:13.781Z,8.07
2023-11-20T15:58:43.780Z,13.45
2023-11-20T16:01:12.806Z,5.38
2023-11-20T16:03:43.548Z,8.00
2023-11-20T16:06:12.372Z,6.68
2023-11-20T16:08:41.183Z,8.27
2023-11-20T16:11:09.792Z,8.02
2023-11-20T16:13:38.350Z,6.68
2023-11-20T16:16:09.591Z,6.75
2023-11-20T16:18:38.214Z,7.32
2023-11-20T16:21:07.502Z,7.72
2023-11-20T16:23:36.121Z,7.20
2023-11-20T16:26:04.989Z,5.20
2023-11-20T16:28:33.769Z,5.47
2023-11-20T16:31:02.781Z,8.40
2023-11-20T16:33:32.806Z,6.68
2023-11-20T16:36:01.739Z,7.60
2023-11-20T16:38:30.458Z,6.13
2023-11-20T16:40:59.053Z,7.68
2023-11-20T16:43:29.900Z,5.93
2023-11-20T16:45:58.668Z,6.07
2023-11-20T16:48:27.445Z,2.83
2023-11-20T16:50:57.616Z,8.82
2023-11-20T16:53:26.358Z,8.13
2023-11-20T16:55:54.976Z,4.47
2023-11-20T16:58:24.390Z,8.07
2023-11-20T17:00:53.051Z,8.23
2023-11-20T17:03:21.877Z,7.68
2023-11-20T17:05:50.553Z,7.13
2023-11-20T17:08:20.553Z,16.75
2023-11-20T17:10:49.408Z,7.10
2023-11-20T17:13:18.828Z,6.13
2023-11-20T17:15:47.520Z,10.05
2023-11-20T17:18:16.233Z,5.70
2023-11-20T17:20:44.944Z,5.47
2023-11-20T17:23:14.219Z,6.63
2023-11-20T17:25:44.328Z,6.35
2023-11-20T17:28:13.164Z,5.47
2023-11-20T17:30:42.306Z,7.55
2023-11-20T17:33:13.219Z,5.50
2023-11-20T17:35:44.064Z,4.93
2023-11-20T17:38:12.734Z,4.63
2023-11-20T17:40:43.638Z,8.40
2023-11-20T17:43:13.608Z,6.03
2023-11-20T17:45:44.850Z,6.70
2023-11-20T17:48:13.752Z,4.63
2023-11-20T17:50:42.546Z,6.15
2023-11-20T17:53:11.204Z,4.63
2023-11-20T17:55:39.933Z,6.57
2023-11-20T17:58:10.094Z,4.85
2023-11-20T18:00:38.687Z,5.70
2023-11-20T18:03:08.610Z,7.47
2023-11-20T18:05:42.224Z,6.82
2023-11-20T18:08:11.126Z,7.13
2023-11-20T18:10:39.813Z,4.75
2023-11-20T18:13:09.870Z,5.07
2023-11-20T18:15:38.487Z,11.93
2023-11-20T18:18:07.391Z,6.80
2023-11-20T18:20:36.023Z,7.03
2023-11-20T18:23:08.988Z,5.25
2023-11-20T18:25:39.233Z,3.65
2023-11-20T18:28:12.072Z,6.43
2023-11-20T18:30:41.846Z,11.00
2023-11-20T18:33:12.353Z,4.95
2023-11-20T18:35:43.468Z,7.55
2023-11-20T18:38:13.824Z,6.32
2023-11-20T18:40:47.855Z,6.90
2023-11-20T18:43:20.599Z,4.43
2023-11-20T18:45:54.062Z,4.28
2023-11-20T18:48:22.776Z,5.15
2023-11-20T18:50:52.587Z,5.07
2023-11-20T18:53:25.133Z,6.80
2023-11-20T18:55:54.989Z,5.70
2023-11-20T18:58:25.956Z,5.63
2023-11-20T19:00:56.202Z,7.18
2023-11-20T19:03:26.423Z,6.35
2023-11-20T19:05:55.353Z,5.00
2023-11-20T19:08:24.130Z,4.90
2023-11-20T19:10:52.827Z,7.10
2023-11-20T19:13:22.099Z,6.25
2023-11-20T19:15:53.718Z,6.15
2023-11-20T19:18:24.965Z,5.03
2023-11-20T19:20:53.671Z,4.53
2023-11-20T19:23:23.465Z,3.35
2023-11-20T19:25:54.445Z,6.55
2023-11-20T19:28:25.588Z,6.40
2023-11-20T19:30:55.601Z,3.97
2023-11-20T19:35:52.727Z,9.95
2023-11-20T19:38:21.311Z,7.78
2023-11-20T19:40:50.003Z,4.65
2023-11-20T19:43:21.413Z,6.38
2023-11-20T19:45:51.493Z,8.95
2023-11-20T19:48:21.455Z,4.32
2023-11-20T19:53:18.712Z,5.07
2023-11-20T19:55:47.600Z,5.75
2023-11-20T19:58:16.210Z,8.02
2023-11-20T20:00:44.757Z,6.38
2023-11-20T20:03:13.690Z,5.57
2023-11-20T20:05:44.812Z,7.22
2023-11-20T20:08:13.327Z,7.15
2023-11-20T20:10:43.245Z,4.05
2023-11-20T20:13:12.544Z,4.45
2023-11-20T20:15:41.220Z,4.03
2023-11-20T20:18:10.096Z,6.82
2023-11-20T20:20:39.838Z,4.22
2023-11-20T20:23:09.834Z,4.40
2023-11-20T20:28:07.628Z,5.55
2023-11-20T20:30:37.119Z,5.15
2023-11-20T20:33:05.734Z,4.70
2023-11-20T20:35:34.341Z,10.82
2023-11-20T20:38:02.937Z,4.60
2023-11-20T20:40:33.028Z,4.88
2023-11-20T20:43:01.910Z,4.40
2023-11-20T20:45:31.019Z,5.32
2023-11-20T20:48:01.252Z,5.68
2023-11-20T20:50:31.785Z,4.10
2023-11-20T20:53:00.392Z,7.47
2023-11-20T20:55:29.048Z,8.55
2023-11-20T20:58:00.426Z,6.20
2023-11-20T21:00:29.472Z,6.25
2023-11-20T21:02:58.204Z,10.80
2023-11-20T21:05:27.077Z,6.10
2023-11-20T21:07:55.609Z,5.53
2023-11-20T21:10:24.332Z,5.75
2023-11-20T21:12:52.870Z,6.68
2023-11-20T21:15:22.953Z,4.25
2023-11-20T21:17:51.623Z,5.70
2023-11-20T21:20:21.876Z,4.43
2023-11-20T21:22:50.432Z,2.88
2023-11-20T21:25:21.350Z,5.43
2023-11-20T21:27:50.661Z,5.90
2023-11-20T21:30:19.299Z,5.78
2023-11-20T21:32:49.742Z,6.00
2023-11-20T21:35:18.576Z,6.60
2023-11-20T21:37:47.074Z,8.15
2023-11-20T21:40:14.752Z,4.25
2023-11-20T21:42:43.293Z,5.35
2023-11-20T21:45:12.458Z,6.40
2023-11-20T21:47:41.022Z,8.63
2023-11-20T21:50:21.388Z,6.43
2023-11-20T21:52:49.962Z,6.85
2023-11-20T21:55:18.559Z,5.05
2023-11-20T21:57:47.469Z,5.18
2023-11-20T22:00:16.773Z,7.07
2023-11-20T22:02:47.378Z,10.02
2023-11-20T22:05:16.174Z,7.55
2023-11-20T22:07:46.138Z,5.65
2023-11-20T22:10:14.747Z,6.55
2023-11-20T22:12:43.305Z,7.82
2023-11-20T22:15:13.031Z,9.98
2023-11-20T22:17:41.792Z,7.18
2023-11-20T22:20:13.552Z,9.63
2023-11-20T22:22:42.853Z,8.00
2023-11-20T22:25:13.674Z,8.45
2023-11-20T22:27:42.493Z,5.57
2023-11-20T22:30:11.806Z,8.48
2023-11-20T22:32:40.493Z,8.40
2023-11-20T22:35:14.371Z,8.05
2023-11-20T22:37:44.295Z,8.35
2023-11-20T22:40:17.360Z,6.32
2023-11-20T22:42:47.873Z,7.63
2023-11-20T22:45:16.832Z,7.47
2023-11-20T22:47:45.435Z,5.72
2023-11-20T22:50:13.995Z,9.25
2023-11-20T22:52:42.566Z,5.15
2023-11-20T22:55:11.883Z,5.38
2023-11-20T22:57:41.801Z,7.40
2023-11-20T23:00:16.378Z,7.88
2023-11-20T23:02:45.004Z,5.63
2023-11-20T23:05:15.070Z,7.03
2023-11-20T23:10:12.909Z,6.40
2023-11-20T23:12:43.299Z,7.38
2023-11-20T23:15:16.174Z,7.82
2023-11-20T23:17:46.018Z,5.07
2023-11-20T23:20:19.834Z,6.00
2023-11-20T23:22:50.653Z,8.15
2023-11-20T23:25:20.707Z,8.18
2023-11-20T23:27:51.520Z,7.07
2023-11-20T23:30:22.685Z,6.32
2023-11-20T23:32:52.240Z,8.25
2023-11-20T23:35:20.862Z,8.77
2023-11-20T23:37:49.528Z,8.40
2023-11-20T23:40:18.487Z,8.45
2023-11-20T23:42:47.574Z,7.25
2023-11-20T23:45:18.986Z,7.00
2023-11-20T23:47:47.735Z,11.45
2023-11-20T23:50:17.951Z,8.85
2023-11-20T23:52:46.660Z,7.45
2023-11-20T23:55:15.308Z,6.57
2023-11-20T23:57:43.885Z,6.20
